sensor_id;sensor_type;location;lat;lon;timestamp;temperature;humidity
37806;DHT22;25082;50.870;0.022;2022-09-29T00:02:20;19.00;64.50
37806;DHT22;25082;50.870;0.022;2022-09-29T00:04:46;19.00;64.60
37806;DHT22;25082;50.870;0.022;2022-09-29T00:07:12;19.00;64.60
37806;DHT22;25082;50.870;0.022;2022-09-29T00:09:37;19.00;64.40
37806;DHT22;25082;50.870;0.022;2022-09-29T00:12:03;19.00;64.70
37806;DHT22;25082;50.870;0.022;2022-09-29T00:14:29;19.00;64.50
37806;DHT22;25082;50.870;0.022;2022-09-29T00:16:55;19.00;64.50
37806;DHT22;25082;50.870;0.022;2022-09-29T00:19:21;19.00;64.40
37806;DHT22;25082;50.870;0.022;2022-09-29T00:21:47;19.00;64.30
37806;DHT22;25082;50.870;0.022;2022-09-29T00:24:13;19.00;64.50
37806;DHT22;25082;50.870;0.022;2022-09-29T00:26:38;19.00;64.40
37806;DHT22;25082;50.870;0.022;2022-09-29T00:29:04;18.90;64.40
37806;DHT22;25082;50.870;0.022;2022-09-29T00:31:32;18.90;64.20
37806;DHT22;25082;50.870;0.022;2022-09-29T00:33:58;18.90;64.30
37806;DHT22;25082;50.870;0.022;2022-09-29T00:36:24;18.90;64.30
37806;DHT22;25082;50.870;0.022;2022-09-29T00:38:54;18.90;64.30
37806;DHT22;25082;50.870;0.022;2022-09-29T00:41:29;18.90;64.20
37806;DHT22;25082;50.870;0.022;2022-09-29T00:44:48;18.90;64.30
37806;DHT22;25082;50.870;0.022;2022-09-29T00:47:04;18.90;64.20
37806;DHT22;25082;50.870;0.022;2022-09-29T00:52:03;18.90;64.20
37806;DHT22;25082;50.870;0.022;2022-09-29T00:54:39;18.90;64.20
37806;DHT22;25082;50.870;0.022;2022-09-29T00:57:08;18.90;64.20
37806;DHT22;25082;50.870;0.022;2022-09-29T00:59:50;18.90;64.20
37806;DHT22;25082;50.870;0.022;2022-09-29T01:02:20;18.90;64.30
37806;DHT22;25082;50.870;0.022;2022-09-29T01:04:47;18.90;64.20
37806;DHT22;25082;50.870;0.022;2022-09-29T01:07:16;18.90;64.30
37806;DHT22;25082;50.870;0.022;2022-09-29T01:09:43;18.80;64.20
37806;DHT22;25082;50.870;0.022;2022-09-29T01:12:09;18.80;64.00
37806;DHT22;25082;50.870;0.022;2022-09-29T01:14:36;18.80;64.20
37806;DHT22;25082;50.870;0.022;2022-09-29T01:17:03;18.80;64.10
37806;DHT22;25082;50.870;0.022;2022-09-29T01:28:27;18.80;64.10
37806;DHT22;25082;50.870;0.022;2022-09-29T01:34:12;18.80;64.20
37806;DHT22;25082;50.870;0.022;2022-09-29T01:39:33;18.80;64.10
37806;DHT22;25082;50.870;0.022;2022-09-29T01:42:19;18.80;64.10
37806;DHT22;25082;50.870;0.022;2022-09-29T01:45:13;18.70;63.90
37806;DHT22;25082;50.870;0.022;2022-09-29T01:47:53;18.70;64.00
37806;DHT22;25082;50.870;0.022;2022-09-29T01:50:33;18.70;63.90
37806;DHT22;25082;50.870;0.022;2022-09-29T01:53:06;18.70;64.00
37806;DHT22;25082;50.870;0.022;2022-09-29T01:55:35;18.70;64.00
37806;DHT22;25082;50.870;0.022;2022-09-29T01:58:09;18.70;63.90
37806;DHT22;25082;50.870;0.022;2022-09-29T02:00:41;18.70;64.00
37806;DHT22;25082;50.870;0.022;2022-09-29T02:03:42;18.70;64.00
37806;DHT22;25082;50.870;0.022;2022-09-29T02:06:17;18.70;64.00
37806;DHT22;25082;50.870;0.022;2022-09-29T02:08:48;18.70;64.00
37806;DHT22;25082;50.870;0.022;2022-09-29T02:11:16;18.70;63.90
37806;DHT22;25082;50.870;0.022;2022-09-29T02:13:52;18.70;63.90
37806;DHT22;25082;50.870;0.022;2022-09-29T02:16:24;18.70;63.90
37806;DHT22;25082;50.870;0.022;2022-09-29T02:18:53;18.70;63.90
37806;DHT22;25082;50.870;0.022;2022-09-29T02:21:20;18.60;63.90
37806;DHT22;25082;50.870;0.022;2022-09-29T02:23:46;18.70;63.80
37806;DHT22;25082;50.870;0.022;2022-09-29T02:26:12;18.60;63.90
37806;DHT22;25082;50.870;0.022;2022-09-29T02:28:38;18.60;63.80
37806;DHT22;25082;50.870;0.022;2022-09-29T02:31:05;18.60;63.80
37806;DHT22;25082;50.870;0.022;2022-09-29T02:33:32;18.60;63.80
37806;DHT22;25082;50.870;0.022;2022-09-29T02:39:04;18.60;63.80
37806;DHT22;25082;50.870;0.022;2022-09-29T02:41:55;18.60;63.80
37806;DHT22;25082;50.870;0.022;2022-09-29T02:47:36;18.60;63.90
37806;DHT22;25082;50.870;0.022;2022-09-29T02:58:48;18.60;63.80
37806;DHT22;25082;50.870;0.022;2022-09-29T03:01:15;18.60;63.70
37806;DHT22;25082;50.870;0.022;2022-09-29T03:03:41;18.50;63.80
37806;DHT22;25082;50.870;0.022;2022-09-29T03:06:09;18.50;63.80
37806;DHT22;25082;50.870;0.022;2022-09-29T03:08:35;18.50;63.60
37806;DHT22;25082;50.870;0.022;2022-09-29T03:11:01;18.50;63.60
37806;DHT22;25082;50.870;0.022;2022-09-29T03:13:27;18.50;63.70
37806;DHT22;25082;50.870;0.022;2022-09-29T03:15:53;18.50;63.70
37806;DHT22;25082;50.870;0.022;2022-09-29T03:18:19;18.50;63.80
37806;DHT22;25082;50.870;0.022;2022-09-29T03:20:47;18.50;63.70
37806;DHT22;25082;50.870;0.022;2022-09-29T03:23:12;18.50;63.60
37806;DHT22;25082;50.870;0.022;2022-09-29T03:25:38;18.50;63.70
37806;DHT22;25082;50.870;0.022;2022-09-29T03:28:04;18.50;63.60
37806;DHT22;25082;50.870;0.022;2022-09-29T03:30:30;18.50;63.70
37806;DHT22;25082;50.870;0.022;2022-09-29T03:32:56;18.50;63.60
37806;DHT22;25082;50.870;0.022;2022-09-29T03:35:21;18.50;63.60
37806;DHT22;25082;50.870;0.022;2022-09-29T03:37:47;18.50;63.50
37806;DHT22;25082;50.870;0.022;2022-09-29T03:40:13;18.50;63.70
37806;DHT22;25082;50.870;0.022;2022-09-29T03:42:39;18.50;63.60
37806;DHT22;25082;50.870;0.022;2022-09-29T03:45:05;18.50;63.60
37806;DHT22;25082;50.870;0.022;2022-09-29T03:47:31;18.40;63.50
37806;DHT22;25082;50.870;0.022;2022-09-29T03:49:57;18.40;63.50
37806;DHT22;25082;50.870;0.022;2022-09-29T03:52:22;18.40;63.50
37806;DHT22;25082;50.870;0.022;2022-09-29T03:54:48;18.40;63.40
37806;DHT22;25082;50.870;0.022;2022-09-29T03:57:14;18.40;63.60
37806;DHT22;25082;50.870;0.022;2022-09-29T03:59:39;18.40;63.60
37806;DHT22;25082;50.870;0.022;2022-09-29T04:02:05;18.40;63.40
37806;DHT22;25082;50.870;0.022;2022-09-29T04:04:31;18.40;63.50
37806;DHT22;25082;50.870;0.022;2022-09-29T04:06:56;18.40;63.50
37806;DHT22;25082;50.870;0.022;2022-09-29T04:09:22;18.40;63.40
37806;DHT22;25082;50.870;0.022;2022-09-29T04:11:48;18.40;63.40
37806;DHT22;25082;50.870;0.022;2022-09-29T04:14:14;18.30;63.40
37806;DHT22;25082;50.870;0.022;2022-09-29T04:16:40;18.40;63.50
37806;DHT22;25082;50.870;0.022;2022-09-29T04:19:05;18.40;63.40
37806;DHT22;25082;50.870;0.022;2022-09-29T04:21:31;18.30;63.40
37806;DHT22;25082;50.870;0.022;2022-09-29T04:23:57;18.30;63.50
37806;DHT22;25082;50.870;0.022;2022-09-29T04:26:22;18.30;63.40
37806;DHT22;25082;50.870;0.022;2022-09-29T04:28:48;18.30;63.30
37806;DHT22;25082;50.870;0.022;2022-09-29T04:31:14;18.40;63.30
37806;DHT22;25082;50.870;0.022;2022-09-29T04:33:40;18.30;63.30
37806;DHT22;25082;50.870;0.022;2022-09-29T04:36:06;18.30;63.30
37806;DHT22;25082;50.870;0.022;2022-09-29T04:38:32;18.30;63.40
37806;DHT22;25082;50.870;0.022;2022-09-29T04:40:58;18.30;63.30
37806;DHT22;25082;50.870;0.022;2022-09-29T04:43:24;18.30;63.30
37806;DHT22;25082;50.870;0.022;2022-09-29T04:45:49;18.30;63.20
37806;DHT22;25082;50.870;0.022;2022-09-29T04:48:15;18.30;63.30
37806;DHT22;25082;50.870;0.022;2022-09-29T04:50:41;18.30;63.30
37806;DHT22;25082;50.870;0.022;2022-09-29T04:53:09;18.30;63.30
37806;DHT22;25082;50.870;0.022;2022-09-29T04:55:38;18.30;63.40
37806;DHT22;25082;50.870;0.022;2022-09-29T04:58:03;18.30;63.20
37806;DHT22;25082;50.870;0.022;2022-09-29T05:00:29;18.20;63.30
37806;DHT22;25082;50.870;0.022;2022-09-29T05:02:56;18.20;63.20
37806;DHT22;25082;50.870;0.022;2022-09-29T05:05:22;18.20;63.30
37806;DHT22;25082;50.870;0.022;2022-09-29T05:07:48;18.20;63.20
37806;DHT22;25082;50.870;0.022;2022-09-29T05:10:14;18.20;63.30
37806;DHT22;25082;50.870;0.022;2022-09-29T05:12:39;18.20;63.20
37806;DHT22;25082;50.870;0.022;2022-09-29T05:15:06;18.20;63.20
37806;DHT22;25082;50.870;0.022;2022-09-29T05:17:32;18.20;63.30
37806;DHT22;25082;50.870;0.022;2022-09-29T05:19:58;18.20;63.20
37806;DHT22;25082;50.870;0.022;2022-09-29T05:22:23;18.20;63.10
37806;DHT22;25082;50.870;0.022;2022-09-29T05:24:51;18.20;63.20
37806;DHT22;25082;50.870;0.022;2022-09-29T05:27:17;18.20;63.20
37806;DHT22;25082;50.870;0.022;2022-09-29T05:29:43;18.20;63.20
37806;DHT22;25082;50.870;0.022;2022-09-29T05:32:08;18.20;63.30
37806;DHT22;25082;50.870;0.022;2022-09-29T05:34:34;18.20;63.20
37806;DHT22;25082;50.870;0.022;2022-09-29T05:37:00;18.20;63.10
37806;DHT22;25082;50.870;0.022;2022-09-29T05:39:25;18.20;63.20
37806;DHT22;25082;50.870;0.022;2022-09-29T05:41:51;18.10;63.20
37806;DHT22;25082;50.870;0.022;2022-09-29T05:44:17;18.10;63.20
37806;DHT22;25082;50.870;0.022;2022-09-29T05:46:43;18.10;63.10
37806;DHT22;25082;50.870;0.022;2022-09-29T05:49:08;18.10;63.10
37806;DHT22;25082;50.870;0.022;2022-09-29T05:51:35;18.10;63.20
37806;DHT22;25082;50.870;0.022;2022-09-29T05:54:01;18.10;63.20
37806;DHT22;25082;50.870;0.022;2022-09-29T05:56:27;18.10;63.10
37806;DHT22;25082;50.870;0.022;2022-09-29T05:58:53;18.10;63.10
37806;DHT22;25082;50.870;0.022;2022-09-29T06:01:21;18.10;63.20
37806;DHT22;25082;50.870;0.022;2022-09-29T06:03:47;18.10;63.10
37806;DHT22;25082;50.870;0.022;2022-09-29T06:06:18;18.10;63.10
37806;DHT22;25082;50.870;0.022;2022-09-29T06:08:45;18.10;63.00
37806;DHT22;25082;50.870;0.022;2022-09-29T06:11:14;18.00;63.10
37806;DHT22;25082;50.870;0.022;2022-09-29T06:13:42;18.10;63.10
37806;DHT22;25082;50.870;0.022;2022-09-29T06:16:09;18.10;63.10
37806;DHT22;25082;50.870;0.022;2022-09-29T06:18:35;18.00;62.90
37806;DHT22;25082;50.870;0.022;2022-09-29T06:21:09;18.10;63.10
37806;DHT22;25082;50.870;0.022;2022-09-29T06:23:36;18.10;63.00
37806;DHT22;25082;50.870;0.022;2022-09-29T06:26:07;18.10;63.00
37806;DHT22;25082;50.870;0.022;2022-09-29T06:28:33;18.00;62.90
37806;DHT22;25082;50.870;0.022;2022-09-29T06:31:01;18.00;63.00
37806;DHT22;25082;50.870;0.022;2022-09-29T06:33:28;18.00;63.00
37806;DHT22;25082;50.870;0.022;2022-09-29T06:35:54;18.00;63.00
37806;DHT22;25082;50.870;0.022;2022-09-29T06:38:38;18.00;63.10
37806;DHT22;25082;50.870;0.022;2022-09-29T06:41:04;18.00;63.00
37806;DHT22;25082;50.870;0.022;2022-09-29T06:43:31;18.00;63.10
37806;DHT22;25082;50.870;0.022;2022-09-29T06:45:57;18.00;63.10
37806;DHT22;25082;50.870;0.022;2022-09-29T06:48:23;18.00;63.10
37806;DHT22;25082;50.870;0.022;2022-09-29T06:50:49;17.90;63.00
37806;DHT22;25082;50.870;0.022;2022-09-29T06:53:15;18.00;63.10
37806;DHT22;25082;50.870;0.022;2022-09-29T06:55:41;18.00;63.10
37806;DHT22;25082;50.870;0.022;2022-09-29T06:58:07;18.00;63.10
37806;DHT22;25082;50.870;0.022;2022-09-29T07:00:34;18.00;63.30
37806;DHT22;25082;50.870;0.022;2022-09-29T07:03:00;17.90;63.00
37806;DHT22;25082;50.870;0.022;2022-09-29T07:05:26;17.90;63.10
37806;DHT22;25082;50.870;0.022;2022-09-29T07:07:52;17.90;63.00
37806;DHT22;25082;50.870;0.022;2022-09-29T07:10:19;17.90;63.10
37806;DHT22;25082;50.870;0.022;2022-09-29T07:12:45;17.90;63.10
37806;DHT22;25082;50.870;0.022;2022-09-29T07:15:12;17.90;63.10
37806;DHT22;25082;50.870;0.022;2022-09-29T07:17:38;17.90;63.10
37806;DHT22;25082;50.870;0.022;2022-09-29T07:20:05;17.90;63.10
37806;DHT22;25082;50.870;0.022;2022-09-29T07:22:32;17.90;63.20
37806;DHT22;25082;50.870;0.022;2022-09-29T07:24:57;17.90;63.10
37806;DHT22;25082;50.870;0.022;2022-09-29T07:27:23;17.90;63.20
37806;DHT22;25082;50.870;0.022;2022-09-29T07:29:50;17.90;63.20
37806;DHT22;25082;50.870;0.022;2022-09-29T07:32:16;17.90;63.40
37806;DHT22;25082;50.870;0.022;2022-09-29T07:34:42;17.90;63.10
37806;DHT22;25082;50.870;0.022;2022-09-29T07:37:09;17.90;63.10
37806;DHT22;25082;50.870;0.022;2022-09-29T07:39:35;17.90;63.00
37806;DHT22;25082;50.870;0.022;2022-09-29T07:42:00;17.90;63.00
37806;DHT22;25082;50.870;0.022;2022-09-29T07:44:28;17.90;63.30
37806;DHT22;25082;50.870;0.022;2022-09-29T07:46:55;17.90;63.10
37806;DHT22;25082;50.870;0.022;2022-09-29T07:49:20;18.00;63.30
37806;DHT22;25082;50.870;0.022;2022-09-29T07:51:46;18.00;63.20
37806;DHT22;25082;50.870;0.022;2022-09-29T07:54:12;18.00;63.10
37806;DHT22;25082;50.870;0.022;2022-09-29T07:56:38;18.00;63.10
37806;DHT22;25082;50.870;0.022;2022-09-29T07:59:04;18.00;63.10
37806;DHT22;25082;50.870;0.022;2022-09-29T08:01:29;18.10;63.20
37806;DHT22;25082;50.870;0.022;2022-09-29T08:03:56;18.10;63.20
37806;DHT22;25082;50.870;0.022;2022-09-29T08:06:23;18.10;63.30
37806;DHT22;25082;50.870;0.022;2022-09-29T08:08:50;18.10;63.30
37806;DHT22;25082;50.870;0.022;2022-09-29T08:11:17;18.20;63.40
37806;DHT22;25082;50.870;0.022;2022-09-29T08:13:45;18.20;63.60
37806;DHT22;25082;50.870;0.022;2022-09-29T08:16:13;18.20;63.60
37806;DHT22;25082;50.870;0.022;2022-09-29T08:18:39;18.20;63.60
37806;DHT22;25082;50.870;0.022;2022-09-29T08:21:06;18.30;63.70
37806;DHT22;25082;50.870;0.022;2022-09-29T08:23:36;18.30;63.60
37806;DHT22;25082;50.870;0.022;2022-09-29T08:26:07;18.30;63.60
37806;DHT22;25082;50.870;0.022;2022-09-29T08:28:35;18.30;63.60
37806;DHT22;25082;50.870;0.022;2022-09-29T08:31:07;18.40;63.90
37806;DHT22;25082;50.870;0.022;2022-09-29T08:33:33;18.40;63.80
37806;DHT22;25082;50.870;0.022;2022-09-29T08:36:00;18.40;63.90
37806;DHT22;25082;50.870;0.022;2022-09-29T08:38:26;18.50;64.00
37806;DHT22;25082;50.870;0.022;2022-09-29T08:40:56;18.50;64.00
37806;DHT22;25082;50.870;0.022;2022-09-29T08:43:33;18.50;64.10
37806;DHT22;25082;50.870;0.022;2022-09-29T08:48:53;18.50;64.60
37806;DHT22;25082;50.870;0.022;2022-09-29T08:51:28;18.60;64.40
37806;DHT22;25082;50.870;0.022;2022-09-29T08:53:58;18.60;64.40
37806;DHT22;25082;50.870;0.022;2022-09-29T08:56:26;18.60;64.60
37806;DHT22;25082;50.870;0.022;2022-09-29T08:58:52;18.60;64.50
37806;DHT22;25082;50.870;0.022;2022-09-29T09:07:26;18.60;64.90
37806;DHT22;25082;50.870;0.022;2022-09-29T09:09:53;18.70;64.80
37806;DHT22;25082;50.870;0.022;2022-09-29T09:12:47;18.70;64.70
37806;DHT22;25082;50.870;0.022;2022-09-29T09:18:42;18.70;65.00
37806;DHT22;25082;50.870;0.022;2022-09-29T09:21:22;18.70;65.10
37806;DHT22;25082;50.870;0.022;2022-09-29T09:23:56;18.70;65.10
37806;DHT22;25082;50.870;0.022;2022-09-29T09:26:40;18.80;65.30
37806;DHT22;25082;50.870;0.022;2022-09-29T09:29:32;18.80;65.20
37806;DHT22;25082;50.870;0.022;2022-09-29T09:32:13;18.80;65.50
37806;DHT22;25082;50.870;0.022;2022-09-29T09:34:48;18.80;65.30
37806;DHT22;25082;50.870;0.022;2022-09-29T09:37:24;18.80;65.50
37806;DHT22;25082;50.870;0.022;2022-09-29T09:40:02;18.90;65.80
37806;DHT22;25082;50.870;0.022;2022-09-29T09:42:33;18.90;65.90
37806;DHT22;25082;50.870;0.022;2022-09-29T09:45:03;18.80;65.90
37806;DHT22;25082;50.870;0.022;2022-09-29T09:47:36;18.90;65.90
37806;DHT22;25082;50.870;0.022;2022-09-29T09:50:13;18.90;65.00
37806;DHT22;25082;50.870;0.022;2022-09-29T09:55:21;18.90;65.80
37806;DHT22;25082;50.870;0.022;2022-09-29T09:57:58;18.90;65.90
37806;DHT22;25082;50.870;0.022;2022-09-29T10:00:29;18.90;65.90
37806;DHT22;25082;50.870;0.022;2022-09-29T10:03:01;18.90;65.90
37806;DHT22;25082;50.870;0.022;2022-09-29T10:05:43;18.90;65.90
37806;DHT22;25082;50.870;0.022;2022-09-29T10:08:45;19.00;66.20
37806;DHT22;25082;50.870;0.022;2022-09-29T10:11:21;18.90;66.20
37806;DHT22;25082;50.870;0.022;2022-09-29T10:13:47;19.00;66.20
37806;DHT22;25082;50.870;0.022;2022-09-29T10:16:19;19.00;66.30
37806;DHT22;25082;50.870;0.022;2022-09-29T10:18:49;19.00;66.40
37806;DHT22;25082;50.870;0.022;2022-09-29T10:23:58;19.00;66.50
37806;DHT22;25082;50.870;0.022;2022-09-29T10:26:42;19.00;66.60
37806;DHT22;25082;50.870;0.022;2022-09-29T10:29:21;19.00;66.60
37806;DHT22;25082;50.870;0.022;2022-09-29T10:34:48;19.00;66.80
37806;DHT22;25082;50.870;0.022;2022-09-29T10:37:31;19.00;66.80
37806;DHT22;25082;50.870;0.022;2022-09-29T10:40:22;19.10;66.80
37806;DHT22;25082;50.870;0.022;2022-09-29T10:42:49;19.10;66.90
37806;DHT22;25082;50.870;0.022;2022-09-29T10:45:19;19.10;67.00
37806;DHT22;25082;50.870;0.022;2022-09-29T10:50:28;19.10;67.10
37806;DHT22;25082;50.870;0.022;2022-09-29T10:53:00;19.20;67.20
37806;DHT22;25082;50.870;0.022;2022-09-29T10:55:30;19.20;67.30
37806;DHT22;25082;50.870;0.022;2022-09-29T10:57:58;19.20;67.30
37806;DHT22;25082;50.870;0.022;2022-09-29T11:00:28;19.20;67.30
37806;DHT22;25082;50.870;0.022;2022-09-29T11:03:04;19.20;67.40
37806;DHT22;25082;50.870;0.022;2022-09-29T11:05:31;19.20;67.40
37806;DHT22;25082;50.870;0.022;2022-09-29T11:07:57;19.30;67.50
37806;DHT22;25082;50.870;0.022;2022-09-29T11:10:30;19.30;67.50
37806;DHT22;25082;50.870;0.022;2022-09-29T11:12:56;19.30;67.50
37806;DHT22;25082;50.870;0.022;2022-09-29T11:15:38;19.30;67.60
37806;DHT22;25082;50.870;0.022;2022-09-29T11:18:22;19.30;67.70
37806;DHT22;25082;50.870;0.022;2022-09-29T11:21:05;19.30;67.70
37806;DHT22;25082;50.870;0.022;2022-09-29T11:26:57;19.30;67.60
37806;DHT22;25082;50.870;0.022;2022-09-29T11:29:38;19.30;67.80
37806;DHT22;25082;50.870;0.022;2022-09-29T11:34:49;19.30;67.80
37806;DHT22;25082;50.870;0.022;2022-09-29T11:45:44;19.30;67.90
37806;DHT22;25082;50.870;0.022;2022-09-29T11:48:28;19.30;67.90
37806;DHT22;25082;50.870;0.022;2022-09-29T11:56:59;19.40;66.30
37806;DHT22;25082;50.870;0.022;2022-09-29T12:02:32;19.40;65.50
37806;DHT22;25082;50.870;0.022;2022-09-29T12:10:59;19.30;63.40
37806;DHT22;25082;50.870;0.022;2022-09-29T12:13:55;19.30;61.70
37806;DHT22;25082;50.870;0.022;2022-09-29T12:16:27;19.30;61.40
37806;DHT22;25082;50.870;0.022;2022-09-29T12:18:59;19.20;61.40
37806;DHT22;25082;50.870;0.022;2022-09-29T12:21:32;19.30;61.20
37806;DHT22;25082;50.870;0.022;2022-09-29T12:24:01;19.20;61.40
37806;DHT22;25082;50.870;0.022;2022-09-29T12:26:29;19.20;61.30
37806;DHT22;25082;50.870;0.022;2022-09-29T12:31:49;19.20;58.20
37806;DHT22;25082;50.870;0.022;2022-09-29T12:34:21;19.10;58.10
37806;DHT22;25082;50.870;0.022;2022-09-29T12:37:14;19.10;57.40
37806;DHT22;25082;50.870;0.022;2022-09-29T12:40:08;19.00;57.10
37806;DHT22;25082;50.870;0.022;2022-09-29T12:42:53;19.00;57.30
37806;DHT22;25082;50.870;0.022;2022-09-29T12:45:36;19.00;57.90
37806;DHT22;25082;50.870;0.022;2022-09-29T12:48:16;19.00;59.00
37806;DHT22;25082;50.870;0.022;2022-09-29T12:56:34;19.00;60.30
37806;DHT22;25082;50.870;0.022;2022-09-29T13:01:56;19.00;57.30
37806;DHT22;25082;50.870;0.022;2022-09-29T13:21:39;19.10;60.50
37806;DHT22;25082;50.870;0.022;2022-09-29T13:24:10;19.20;60.80
37806;DHT22;25082;50.870;0.022;2022-09-29T13:29:35;19.30;61.30
37806;DHT22;25082;50.870;0.022;2022-09-29T13:32:05;19.30;61.60
37806;DHT22;25082;50.870;0.022;2022-09-29T13:34:33;19.30;61.80
37806;DHT22;25082;50.870;0.022;2022-09-29T13:40:02;19.30;62.20
37806;DHT22;25082;50.870;0.022;2022-09-29T13:42:45;19.30;62.30
37806;DHT22;25082;50.870;0.022;2022-09-29T13:47:50;19.30;62.70
37806;DHT22;25082;50.870;0.022;2022-09-29T13:58:23;19.40;63.30
37806;DHT22;25082;50.870;0.022;2022-09-29T14:00:49;19.30;63.40
37806;DHT22;25082;50.870;0.022;2022-09-29T14:03:32;19.40;63.50
37806;DHT22;25082;50.870;0.022;2022-09-29T14:09:04;19.40;63.60
37806;DHT22;25082;50.870;0.022;2022-09-29T14:11:41;19.40;63.70
37806;DHT22;25082;50.870;0.022;2022-09-29T14:14:16;19.40;63.80
37806;DHT22;25082;50.870;0.022;2022-09-29T14:27:58;19.50;64.10
37806;DHT22;25082;50.870;0.022;2022-09-29T14:33:19;19.50;64.30
37806;DHT22;25082;50.870;0.022;2022-09-29T14:38:26;19.50;64.70
37806;DHT22;25082;50.870;0.022;2022-09-29T14:49:29;19.50;64.80
37806;DHT22;25082;50.870;0.022;2022-09-29T14:55:14;19.50;64.80
37806;DHT22;25082;50.870;0.022;2022-09-29T15:03:34;19.50;58.90
37806;DHT22;25082;50.870;0.022;2022-09-29T15:08:35;19.30;56.80
37806;DHT22;25082;50.870;0.022;2022-09-29T15:11:02;19.30;56.50
37806;DHT22;25082;50.870;0.022;2022-09-29T15:13:32;19.30;56.30
37806;DHT22;25082;50.870;0.022;2022-09-29T15:16:05;19.30;57.90
37806;DHT22;25082;50.870;0.022;2022-09-29T15:26:42;19.30;56.20
37806;DHT22;25082;50.870;0.022;2022-09-29T15:29:14;19.30;57.20
37806;DHT22;25082;50.870;0.022;2022-09-29T15:31:44;19.30;57.20
37806;DHT22;25082;50.870;0.022;2022-09-29T15:34:20;19.30;56.80
37806;DHT22;25082;50.870;0.022;2022-09-29T15:36:49;19.30;56.80
37806;DHT22;25082;50.870;0.022;2022-09-29T15:41:59;19.30;56.70
37806;DHT22;25082;50.870;0.022;2022-09-29T15:44:31;19.30;55.30
37806;DHT22;25082;50.870;0.022;2022-09-29T15:46:58;19.30;55.40
37806;DHT22;25082;50.870;0.022;2022-09-29T15:49:28;19.30;55.10
37806;DHT22;25082;50.870;0.022;2022-09-29T15:52:00;19.30;55.20
37806;DHT22;25082;50.870;0.022;2022-09-29T15:54:30;19.20;54.70
37806;DHT22;25082;50.870;0.022;2022-09-29T15:57:02;19.30;54.80
37806;DHT22;25082;50.870;0.022;2022-09-29T15:59:48;19.30;54.80
37806;DHT22;25082;50.870;0.022;2022-09-29T16:02:37;19.20;55.20
37806;DHT22;25082;50.870;0.022;2022-09-29T16:05:11;19.20;54.00
37806;DHT22;25082;50.870;0.022;2022-09-29T16:07:46;19.20;53.60
37806;DHT22;25082;50.870;0.022;2022-09-29T16:10:19;19.20;54.40
37806;DHT22;25082;50.870;0.022;2022-09-29T16:13:05;19.10;55.20
37806;DHT22;25082;50.870;0.022;2022-09-29T16:15:41;19.10;54.20
37806;DHT22;25082;50.870;0.022;2022-09-29T16:18:19;19.10;54.60
37806;DHT22;25082;50.870;0.022;2022-09-29T16:20:45;19.10;54.40
37806;DHT22;25082;50.870;0.022;2022-09-29T16:28:37;19.10;56.30
37806;DHT22;25082;50.870;0.022;2022-09-29T16:31:24;19.10;57.30
37806;DHT22;25082;50.870;0.022;2022-09-29T16:33:55;19.10;57.50
37806;DHT22;25082;50.870;0.022;2022-09-29T16:36:30;19.10;58.10
37806;DHT22;25082;50.870;0.022;2022-09-29T16:39:03;19.20;58.20
37806;DHT22;25082;50.870;0.022;2022-09-29T16:41:36;19.20;58.70
37806;DHT22;25082;50.870;0.022;2022-09-29T16:44:04;19.30;58.90
37806;DHT22;25082;50.870;0.022;2022-09-29T16:47:00;19.30;58.90
37806;DHT22;25082;50.870;0.022;2022-09-29T16:49:29;19.30;59.20
37806;DHT22;25082;50.870;0.022;2022-09-29T16:52:00;19.30;59.20
37806;DHT22;25082;50.870;0.022;2022-09-29T16:54:42;19.30;59.30
37806;DHT22;25082;50.870;0.022;2022-09-29T16:57:18;19.30;60.00
37806;DHT22;25082;50.870;0.022;2022-09-29T16:59:53;19.30;60.10
37806;DHT22;25082;50.870;0.022;2022-09-29T17:02:20;19.30;60.40
37806;DHT22;25082;50.870;0.022;2022-09-29T17:04:47;19.30;60.30
37806;DHT22;25082;50.870;0.022;2022-09-29T17:07:18;19.30;60.40
37806;DHT22;25082;50.870;0.022;2022-09-29T17:09:50;19.30;60.50
37806;DHT22;25082;50.870;0.022;2022-09-29T17:12:17;19.30;60.60
37806;DHT22;25082;50.870;0.022;2022-09-29T17:14:43;19.30;60.70
37806;DHT22;25082;50.870;0.022;2022-09-29T17:19:48;19.30;59.70
37806;DHT22;25082;50.870;0.022;2022-09-29T17:22:28;19.30;60.10
37806;DHT22;25082;50.870;0.022;2022-09-29T17:24:55;19.30;60.40
37806;DHT22;25082;50.870;0.022;2022-09-29T17:27:21;19.30;60.50
37806;DHT22;25082;50.870;0.022;2022-09-29T17:30:06;19.30;60.60
37806;DHT22;25082;50.870;0.022;2022-09-29T17:32:33;19.30;60.60
37806;DHT22;25082;50.870;0.022;2022-09-29T17:35:00;19.30;60.70
37806;DHT22;25082;50.870;0.022;2022-09-29T17:37:26;19.30;60.70
37806;DHT22;25082;50.870;0.022;2022-09-29T17:39:52;19.30;60.90
37806;DHT22;25082;50.870;0.022;2022-09-29T17:42:18;19.30;60.90
37806;DHT22;25082;50.870;0.022;2022-09-29T17:44:44;19.30;60.90
37806;DHT22;25082;50.870;0.022;2022-09-29T17:47:13;19.30;60.90
37806;DHT22;25082;50.870;0.022;2022-09-29T17:49:39;19.30;61.00
37806;DHT22;25082;50.870;0.022;2022-09-29T17:52:06;19.30;61.10
37806;DHT22;25082;50.870;0.022;2022-09-29T17:54:34;19.40;61.30
37806;DHT22;25082;50.870;0.022;2022-09-29T17:57:02;19.40;61.40
37806;DHT22;25082;50.870;0.022;2022-09-29T17:59:28;19.40;61.50
37806;DHT22;25082;50.870;0.022;2022-09-29T18:01:53;19.40;61.50
37806;DHT22;25082;50.870;0.022;2022-09-29T18:04:19;19.40;61.60
37806;DHT22;25082;50.870;0.022;2022-09-29T18:06:45;19.40;61.70
37806;DHT22;25082;50.870;0.022;2022-09-29T18:09:15;19.40;61.80
37806;DHT22;25082;50.870;0.022;2022-09-29T18:11:41;19.40;61.90
37806;DHT22;25082;50.870;0.022;2022-09-29T18:14:07;19.40;62.10
37806;DHT22;25082;50.870;0.022;2022-09-29T18:16:33;19.40;62.80
37806;DHT22;25082;50.870;0.022;2022-09-29T18:18:59;19.40;62.90
37806;DHT22;25082;50.870;0.022;2022-09-29T18:21:24;19.40;62.30
37806;DHT22;25082;50.870;0.022;2022-09-29T18:23:50;19.50;62.70
37806;DHT22;25082;50.870;0.022;2022-09-29T18:26:16;19.50;62.60
37806;DHT22;25082;50.870;0.022;2022-09-29T18:28:43;19.50;63.00
37806;DHT22;25082;50.870;0.022;2022-09-29T18:31:23;19.50;62.90
37806;DHT22;25082;50.870;0.022;2022-09-29T18:33:50;19.50;63.10
37806;DHT22;25082;50.870;0.022;2022-09-29T18:36:16;19.50;63.70
37806;DHT22;25082;50.870;0.022;2022-09-29T18:38:42;19.50;63.40
37806;DHT22;25082;50.870;0.022;2022-09-29T18:41:17;19.50;63.80
37806;DHT22;25082;50.870;0.022;2022-09-29T18:43:45;19.60;63.90
37806;DHT22;25082;50.870;0.022;2022-09-29T18:46:11;19.60;63.90
37806;DHT22;25082;50.870;0.022;2022-09-29T18:48:39;19.60;63.80
37806;DHT22;25082;50.870;0.022;2022-09-29T18:51:05;19.60;64.10
37806;DHT22;25082;50.870;0.022;2022-09-29T18:53:30;19.60;63.80
37806;DHT22;25082;50.870;0.022;2022-09-29T18:56:01;19.70;63.60
37806;DHT22;25082;50.870;0.022;2022-09-29T18:58:27;19.70;63.50